createdAt,value
2022-11-05T00:02:55.370Z,2.22
2022-11-05T00:08:09.019Z,27.27
2022-11-05T00:13:19.409Z,4.70
2022-11-05T00:18:11.021Z,1.65
2022-11-05T00:23:24.714Z,1.33
2022-11-05T00:28:16.379Z,5.15
2022-11-05T00:33:08.414Z,2.17
2022-11-05T00:38:00.367Z,3.15
2022-11-05T00:43:10.765Z,2.78
2022-11-05T00:48:21.492Z,2.38
2022-11-05T00:53:13.657Z,5.63
2022-11-05T00:58:09.094Z,2.55
2022-11-05T01:03:03.201Z,5.40
2022-11-05T01:07:55.231Z,5.70
2022-11-05T01:12:46.890Z,3.03
2022-11-05T01:17:38.645Z,1.35
2022-11-05T01:22:30.321Z,3.33
2022-11-05T01:27:22.076Z,3.00
2022-11-05T01:32:13.855Z,4.18
2022-11-05T01:37:05.471Z,7.40
2022-11-05T01:41:59.030Z,2.22
2022-11-05T01:46:50.861Z,17.23
2022-11-05T01:51:44.668Z,7.38
2022-11-05T01:56:41.276Z,3.95
2022-11-05T02:01:33.484Z,3.85
2022-11-05T02:06:27.496Z,5.53
2022-11-05T02:11:20.315Z,3.90
2022-11-05T02:16:34.863Z,36.78
2022-11-05T02:21:50.789Z,12.63
2022-11-05T02:26:45.401Z,23.58
2022-11-05T02:31:47.941Z,26.10
2022-11-05T02:36:54.707Z,22.02
2022-11-05T02:42:11.255Z,57.65
2022-11-05T02:47:45.169Z,25.05
2022-11-05T02:52:46.349Z,28.52
2022-11-05T02:57:38.279Z,4.32
2022-11-05T03:02:30.233Z,30.02
2022-11-05T03:07:43.989Z,118.40
2022-11-05T03:13:17.635Z,29.75
2022-11-05T03:18:20.995Z,22.08
2022-11-05T03:23:16.561Z,36.20
2022-11-05T03:28:10.367Z,7.88
2022-11-05T03:33:06.962Z,31.98
2022-11-05T03:38:04.267Z,24.50
2022-11-05T03:42:58.935Z,19.90
2022-11-05T03:47:54.514Z,34.78
2022-11-05T03:52:53.265Z,10.00
2022-11-05T03:57:49.776Z,23.77
2022-11-05T04:02:41.980Z,10.38
2022-11-05T04:07:52.795Z,16.45
2022-11-05T04:13:02.980Z,29.08
2022-11-05T04:17:55.533Z,44.20
2022-11-05T04:23:06.130Z,38.53
2022-11-05T04:28:01.199Z,50.92
2022-11-05T04:33:03.543Z,29.58
2022-11-05T04:37:55.162Z,12.13
2022-11-05T04:42:46.959Z,6.95
2022-11-05T04:47:38.626Z,18.95
2022-11-05T04:52:30.677Z,9.23
2022-11-05T04:57:22.421Z,6.30
2022-11-05T05:02:16.665Z,8.55
2022-11-05T05:07:08.418Z,10.48
2022-11-05T05:12:00.044Z,3.38
2022-11-05T05:16:51.725Z,8.02
2022-11-05T05:21:43.418Z,6.97
2022-11-05T05:26:37.158Z,8.05
2022-11-05T05:31:28.857Z,9.00
2022-11-05T05:36:22.122Z,9.52
2022-11-05T05:41:14.377Z,8.95
2022-11-05T05:46:08.533Z,3.05
2022-11-05T05:51:08.312Z,6.50
2022-11-05T05:56:00.158Z,10.68
2022-11-05T06:00:51.999Z,5.78
2022-11-05T06:05:43.615Z,9.05
2022-11-05T06:10:35.538Z,5.53
2022-11-05T06:15:30.552Z,6.82
2022-11-05T06:20:26.267Z,8.65
2022-11-05T06:25:17.960Z,6.65
2022-11-05T06:30:10.099Z,10.68
2022-11-05T06:35:01.724Z,7.53
2022-11-05T06:39:53.560Z,6.72
2022-11-05T06:44:45.175Z,5.80
2022-11-05T06:49:36.777Z,9.23
2022-11-05T06:54:28.308Z,10.13
2022-11-05T06:59:20.268Z,7.07
2022-11-05T07:04:12.784Z,8.00
2022-11-05T07:09:04.542Z,8.93
2022-11-05T07:13:56.149Z,5.82
2022-11-05T07:18:47.833Z,7.45
2022-11-05T07:23:39.491Z,7.00
2022-11-05T07:28:31.101Z,7.88
2022-11-05T07:33:22.663Z,9.30
2022-11-05T07:38:14.323Z,7.10
2022-11-05T07:43:05.908Z,12.43
2022-11-05T07:48:03.449Z,9.57
2022-11-05T07:53:00.294Z,6.25
2022-11-05T07:57:51.932Z,9.90
2022-11-05T08:02:44.273Z,7.32
2022-11-05T08:07:36.363Z,7.45
2022-11-05T08:12:28.063Z,8.63
2022-11-05T08:17:19.853Z,9.40
2022-11-05T08:22:11.480Z,7.47
2022-11-05T08:27:03.207Z,11.73
2022-11-05T08:31:54.775Z,6.55
2022-11-05T08:36:47.249Z,10.15
2022-11-05T08:41:40.501Z,8.82
2022-11-05T08:46:32.117Z,7.22
2022-11-05T08:51:23.806Z,6.55
2022-11-05T08:56:15.624Z,6.95
2022-11-05T09:01:07.374Z,9.90
2022-11-05T09:05:58.990Z,8.40
2022-11-05T09:10:50.566Z,7.28
2022-11-05T09:15:42.405Z,9.65
2022-11-05T09:20:36.466Z,7.13
2022-11-05T09:25:28.514Z,6.85
2022-11-05T09:30:20.184Z,5.38
2022-11-05T09:35:11.820Z,6.40
2022-11-05T09:40:04.461Z,5.85
2022-11-05T09:45:03.058Z,5.07
2022-11-05T09:49:57.209Z,6.00
2022-11-05T09:54:50.365Z,6.10
2022-11-05T09:59:46.563Z,5.28
2022-11-05T10:04:39.487Z,5.93
2022-11-05T10:09:56.649Z,5.68
2022-11-05T10:14:56.169Z,3.50
2022-11-05T10:19:56.407Z,4.20
2022-11-05T10:24:50.511Z,5.97
2022-11-05T10:29:43.720Z,9.07
2022-11-05T10:34:38.485Z,6.88
2022-11-05T10:39:31.970Z,5.38
2022-11-05T10:44:47.757Z,5.38
2022-11-05T10:49:52.462Z,4.47
2022-11-05T10:54:45.453Z,4.07
2022-11-05T10:59:37.081Z,6.07
2022-11-05T11:04:36.516Z,7.30
2022-11-05T11:09:33.369Z,4.32
2022-11-05T11:14:24.948Z,4.55
2022-11-05T11:19:34.753Z,8.13
2022-11-05T11:24:32.493Z,3.55
2022-11-05T11:29:30.613Z,3.05
2022-11-05T11:34:39.335Z,3.70
2022-11-05T11:39:32.608Z,3.00
2022-11-05T11:44:29.630Z,6.18
2022-11-05T11:49:41.087Z,4.47
2022-11-05T11:54:34.718Z,3.97
2022-11-05T11:59:47.228Z,7.15
2022-11-05T12:05:19.745Z,5.70
2022-11-05T12:10:41.674Z,4.40
2022-11-05T12:15:45.452Z,7.35
2022-11-05T12:20:43.343Z,8.32
2022-11-05T12:25:45.637Z,6.05
2022-11-05T12:31:22.564Z,5.88
2022-11-05T12:36:53.851Z,6.38
2022-11-05T12:42:02.513Z,3.63
2022-11-05T12:47:02.400Z,3.03
2022-11-05T12:52:05.505Z,2.50
2022-11-05T12:57:01.082Z,2.22
2022-11-05T13:02:06.566Z,2.28
2022-11-05T13:07:04.113Z,5.57
2022-11-05T13:12:15.104Z,3.72
2022-11-05T13:17:14.073Z,2.47
2022-11-05T13:22:33.726Z,2.60
2022-11-05T13:27:42.461Z,1.58
2022-11-05T13:32:41.460Z,1.30
2022-11-05T13:37:59.751Z,4.10
2022-11-05T13:43:13.017Z,1.42
2022-11-05T13:48:18.899Z,6.45
2022-11-05T13:53:39.679Z,6.38
2022-11-05T13:58:45.321Z,1.95
2022-11-05T14:03:37.791Z,1.95
2022-11-05T14:08:30.056Z,1.35
2022-11-05T14:13:36.591Z,1.85
2022-11-05T14:18:53.399Z,1.33
2022-11-05T14:23:57.493Z,1.58
2022-11-05T14:29:21.457Z,3.20
2022-11-05T14:34:12.996Z,0.93
2022-11-05T14:39:23.881Z,1.38
2022-11-05T14:44:15.530Z,1.02
2022-11-05T14:49:15.736Z,2.10
2022-11-05T14:54:19.350Z,1.23
2022-11-05T14:59:31.435Z,1.75
2022-11-05T15:04:30.661Z,1.58
2022-11-05T15:09:51.468Z,2.30
2022-11-05T15:14:54.404Z,4.25
2022-11-05T15:19:47.081Z,4.28
2022-11-05T15:24:41.780Z,1.95
2022-11-05T15:29:33.745Z,1.52
2022-11-05T15:34:31.976Z,2.65
2022-11-05T15:39:38.791Z,2.50
2022-11-05T15:44:42.426Z,2.35
2022-11-05T15:49:34.548Z,2.08
2022-11-05T15:54:30.519Z,0.90
2022-11-05T15:59:24.946Z,1.88
2022-11-05T16:04:18.648Z,0.75
2022-11-05T16:09:30.443Z,1.80
2022-11-05T16:14:22.035Z,1.88
2022-11-05T16:19:40.191Z,4.55
2022-11-05T16:24:33.026Z,2.22
2022-11-05T16:29:39.461Z,2.92
2022-11-05T16:34:42.760Z,3.63
2022-11-05T16:39:34.429Z,2.63
2022-11-05T16:44:26.077Z,1.08
2022-11-05T16:49:18.175Z,1.98
2022-11-05T16:54:09.875Z,1.33
2022-11-05T16:59:02.876Z,1.00
2022-11-05T17:03:54.690Z,1.75
2022-11-05T17:08:47.159Z,1.55
2022-11-05T17:13:38.765Z,2.15
2022-11-05T17:18:30.446Z,2.08
2022-11-05T17:23:26.810Z,5.30
2022-11-05T17:28:19.563Z,5.38
2022-11-05T17:33:12.729Z,82.35
2022-11-05T17:38:04.594Z,66.18
2022-11-05T17:42:56.368Z,68.57
2022-11-05T17:47:48.283Z,47.20
2022-11-05T17:52:40.030Z,97.18
2022-11-05T17:57:31.600Z,40.80
2022-11-05T18:02:23.475Z,40.78
2022-11-05T18:07:15.300Z,19.98
2022-11-05T18:12:07.653Z,18.60
2022-11-05T18:17:00.406Z,43.92
2022-11-05T18:21:52.177Z,76.28
2022-11-05T18:26:43.977Z,100.55
2022-11-05T18:31:35.862Z,46.03
2022-11-05T18:36:29.938Z,12.00
2022-11-05T18:41:21.909Z,10.70
2022-11-05T18:46:35.873Z,13.55
2022-11-05T18:51:26.901Z,15.50
2022-11-05T18:56:18.738Z,9.30
2022-11-05T19:01:19.538Z,20.98
2022-11-05T19:06:11.285Z,22.20
2022-11-05T19:11:17.216Z,27.60
2022-11-05T19:16:11.017Z,38.97
2022-11-05T19:21:07.969Z,31.08
2022-11-05T19:26:03.812Z,24.33
2022-11-05T19:30:55.465Z,25.02
2022-11-05T19:35:47.066Z,15.32
2022-11-05T19:40:39.007Z,13.85
2022-11-05T19:45:44.258Z,25.52
2022-11-05T19:50:41.728Z,31.73
2022-11-05T19:55:33.651Z,36.25
2022-11-05T20:00:25.348Z,61.53
2022-11-05T20:05:18.337Z,29.08
2022-11-05T20:10:10.490Z,23.55
2022-11-05T20:15:04.144Z,61.78
2022-11-05T20:19:56.014Z,47.55
2022-11-05T20:24:47.631Z,32.80
2022-11-05T20:29:39.373Z,54.38
2022-11-05T20:34:31.852Z,57.22
2022-11-05T20:39:23.603Z,51.95
2022-11-05T20:44:15.573Z,35.00
2022-11-05T20:49:07.665Z,29.63
2022-11-05T20:54:01.477Z,27.23
2022-11-05T20:58:53.628Z,33.67
2022-11-05T21:03:46.802Z,27.88
2022-11-05T21:08:38.979Z,66.40
2022-11-05T21:13:31.106Z,54.80
2022-11-05T21:18:25.976Z,59.75
2022-11-05T21:23:17.936Z,40.53
2022-11-05T21:28:11.669Z,112.65
2022-11-05T21:33:06.337Z,60.38
2022-11-05T21:37:58.239Z,53.75
2022-11-05T21:42:49.885Z,55.08
2022-11-05T21:47:41.607Z,54.38
2022-11-05T21:52:51.732Z,172.38
2022-11-05T21:58:02.185Z,86.05
2022-11-05T22:02:54.324Z,38.22
2022-11-05T22:07:47.017Z,28.38
2022-11-05T22:12:39.120Z,64.45
2022-11-05T22:17:30.779Z,58.90
2022-11-05T22:22:22.531Z,26.02
2022-11-05T22:27:16.857Z,74.20
2022-11-05T22:32:10.551Z,135.80
2022-11-05T22:37:02.665Z,68.53
2022-11-05T22:41:57.151Z,69.20
2022-11-05T22:46:49.273Z,30.95
2022-11-05T22:51:41.217Z,30.63
2022-11-05T22:56:36.406Z,35.83
2022-11-05T23:01:28.624Z,34.85
2022-11-05T23:06:41.997Z,61.78
2022-11-05T23:11:38.509Z,62.38
2022-11-05T23:16:48.665Z,42.42
2022-11-05T23:21:59.153Z,46.38
2022-11-05T23:26:50.933Z,40.60
2022-11-05T23:32:01.264Z,42.53
2022-11-05T23:37:11.889Z,33.40
2022-11-05T23:42:22.418Z,49.83
2022-11-05T23:47:32.819Z,21.77
2022-11-05T23:52:24.448Z,21.85
2022-11-05T23:57:16.191Z,26.05
